sensor_id;sensor_type;location;lat;lon;timestamp;pressure;altitude;pressure_sealevel;temperature;humidity
70781;BME280;59514;48.810;2.134;2022-11-02T00:00:45;100644.88;;;13.12;86.42
70781;BME280;59514;48.810;2.134;2022-11-02T00:03:10;100646.97;;;13.10;87.18
70781;BME280;59514;48.810;2.134;2022-11-02T00:05:36;100649.28;;;13.07;87.10
70781;BME280;59514;48.810;2.134;2022-11-02T00:08:02;100644.50;;;13.09;86.60
70781;BME280;59514;48.810;2.134;2022-11-02T00:10:27;100647.91;;;13.04;86.52
70781;BME280;59514;48.810;2.134;2022-11-02T00:12:54;100649.53;;;13.05;86.06
70781;BME280;59514;48.810;2.134;2022-11-02T00:15:19;100647.50;;;13.00;86.28
70781;BME280;59514;48.810;2.134;2022-11-02T00:17:47;100649.59;;;12.98;86.18
70781;BME280;59514;48.810;2.134;2022-11-02T00:20:17;100655.81;;;12.87;85.41
70781;BME280;59514;48.810;2.134;2022-11-02T00:22:43;100676.31;;;12.88;85.78
70781;BME280;59514;48.810;2.134;2022-11-02T00:25:12;100681.94;;;12.98;84.39
70781;BME280;59514;48.810;2.134;2022-11-02T00:27:39;100680.25;;;13.04;84.40
70781;BME280;59514;48.810;2.134;2022-11-02T00:30:06;100676.56;;;12.98;84.09
70781;BME280;59514;48.810;2.134;2022-11-02T00:32:32;100683.72;;;12.93;83.94
70781;BME280;59514;48.810;2.134;2022-11-02T00:34:58;100690.03;;;12.98;83.77
70781;BME280;59514;48.810;2.134;2022-11-02T00:37:23;100687.00;;;12.95;83.09
70781;BME280;59514;48.810;2.134;2022-11-02T00:39:48;100693.31;;;12.89;82.98
70781;BME280;59514;48.810;2.134;2022-11-02T00:42:14;100697.06;;;12.88;83.24
70781;BME280;59514;48.810;2.134;2022-11-02T00:44:40;100699.06;;;12.92;82.43
70781;BME280;59514;48.810;2.134;2022-11-02T00:47:06;100690.03;;;12.87;81.78
70781;BME280;59514;48.810;2.134;2022-11-02T00:49:31;100694.38;;;12.76;81.81
70781;BME280;59514;48.810;2.134;2022-11-02T00:51:56;100694.97;;;12.78;82.01
70781;BME280;59514;48.810;2.134;2022-11-02T00:54:22;100688.50;;;12.79;82.44
70781;BME280;59514;48.810;2.134;2022-11-02T00:56:48;100699.75;;;12.76;82.20
70781;BME280;59514;48.810;2.134;2022-11-02T00:59:13;100702.22;;;12.78;81.78
70781;BME280;59514;48.810;2.134;2022-11-02T01:01:39;100704.91;;;12.78;81.90
70781;BME280;59514;48.810;2.134;2022-11-02T01:04:05;100712.75;;;12.79;82.03
70781;BME280;59514;48.810;2.134;2022-11-02T01:06:30;100710.28;;;12.66;82.73
70781;BME280;59514;48.810;2.134;2022-11-02T01:08:56;100720.91;;;12.61;83.50
70781;BME280;59514;48.810;2.134;2022-11-02T01:11:22;100717.97;;;12.63;83.14
70781;BME280;59514;48.810;2.134;2022-11-02T01:13:51;100715.66;;;12.66;83.36
70781;BME280;59514;48.810;2.134;2022-11-02T01:16:17;100720.31;;;12.59;83.26
70781;BME280;59514;48.810;2.134;2022-11-02T01:18:42;100720.84;;;12.50;84.15
70781;BME280;59514;48.810;2.134;2022-11-02T01:21:08;100719.13;;;12.55;84.17
70781;BME280;59514;48.810;2.134;2022-11-02T01:23:34;100718.88;;;12.57;84.07
70781;BME280;59514;48.810;2.134;2022-11-02T01:26:05;100720.03;;;12.49;84.42
70781;BME280;59514;48.810;2.134;2022-11-02T01:28:31;100728.69;;;12.51;84.12
70781;BME280;59514;48.810;2.134;2022-11-02T01:30:57;100732.81;;;12.54;83.93
70781;BME280;59514;48.810;2.134;2022-11-02T01:33:23;100731.41;;;12.51;84.32
70781;BME280;59514;48.810;2.134;2022-11-02T01:35:49;100740.84;;;12.42;84.70
70781;BME280;59514;48.810;2.134;2022-11-02T01:38:14;100746.84;;;12.44;84.89
70781;BME280;59514;48.810;2.134;2022-11-02T01:40:39;100741.28;;;12.39;85.35
70781;BME280;59514;48.810;2.134;2022-11-02T01:43:24;100756.25;;;12.35;85.63
70781;BME280;59514;48.810;2.134;2022-11-02T01:45:54;100749.25;;;12.34;85.74
70781;BME280;59514;48.810;2.134;2022-11-02T01:48:26;100754.94;;;12.26;86.10
70781;BME280;59514;48.810;2.134;2022-11-02T01:50:52;100753.56;;;12.35;86.00
70781;BME280;59514;48.810;2.134;2022-11-02T01:53:18;100755.66;;;12.33;85.26
70781;BME280;59514;48.810;2.134;2022-11-02T01:55:43;100751.72;;;12.36;85.13
70781;BME280;59514;48.810;2.134;2022-11-02T01:58:10;100756.84;;;12.37;85.54
70781;BME280;59514;48.810;2.134;2022-11-02T02:00:37;100760.56;;;12.25;85.93
70781;BME280;59514;48.810;2.134;2022-11-02T02:03:12;100751.06;;;12.22;86.20
70781;BME280;59514;48.810;2.134;2022-11-02T02:05:43;100755.31;;;12.30;86.55
70781;BME280;59514;48.810;2.134;2022-11-02T02:08:11;100756.72;;;12.32;85.82
70781;BME280;59514;48.810;2.134;2022-11-02T02:10:37;100758.59;;;12.32;85.79
70781;BME280;59514;48.810;2.134;2022-11-02T02:13:04;100760.31;;;12.26;86.18
70781;BME280;59514;48.810;2.134;2022-11-02T02:18:37;100760.63;;;12.18;86.91
70781;BME280;59514;48.810;2.134;2022-11-02T02:21:11;100766.63;;;12.20;87.29
70781;BME280;59514;48.810;2.134;2022-11-02T02:23:57;100766.16;;;12.05;87.48
70781;BME280;59514;48.810;2.134;2022-11-02T02:29:20;100773.78;;;12.08;87.21
70781;BME280;59514;48.810;2.134;2022-11-02T02:34:18;100783.50;;;12.09;87.72
70781;BME280;59514;48.810;2.134;2022-11-02T02:36:48;100788.09;;;12.08;87.37
70781;BME280;59514;48.810;2.134;2022-11-02T02:39:28;100787.84;;;12.10;87.36
70781;BME280;59514;48.810;2.134;2022-11-02T02:42:00;100788.97;;;12.02;87.76
70781;BME280;59514;48.810;2.134;2022-11-02T02:44:32;100795.09;;;12.09;87.26
70781;BME280;59514;48.810;2.134;2022-11-02T02:47:04;100796.81;;;12.04;87.24
70781;BME280;59514;48.810;2.134;2022-11-02T02:49:41;100794.59;;;12.01;87.63
70781;BME280;59514;48.810;2.134;2022-11-02T02:52:09;100796.81;;;12.04;88.27
70781;BME280;59514;48.810;2.134;2022-11-02T02:54:41;100797.72;;;11.98;87.41
70781;BME280;59514;48.810;2.134;2022-11-02T02:57:12;100796.09;;;11.97;87.79
70781;BME280;59514;48.810;2.134;2022-11-02T02:59:44;100795.25;;;11.96;87.59
70781;BME280;59514;48.810;2.134;2022-11-02T03:02:31;100793.00;;;11.93;88.12
70781;BME280;59514;48.810;2.134;2022-11-02T03:04:57;100796.88;;;11.97;87.58
70781;BME280;59514;48.810;2.134;2022-11-02T03:07:25;100791.59;;;11.91;87.93
70781;BME280;59514;48.810;2.134;2022-11-02T03:12:30;100794.88;;;11.93;88.00
70781;BME280;59514;48.810;2.134;2022-11-02T03:15:10;100799.22;;;11.94;87.71
70781;BME280;59514;48.810;2.134;2022-11-02T03:25:42;100808.94;;;11.95;87.39
70781;BME280;59514;48.810;2.134;2022-11-02T03:28:15;100820.38;;;11.90;88.03
70781;BME280;59514;48.810;2.134;2022-11-02T03:30:48;100819.75;;;11.88;87.63
70781;BME280;59514;48.810;2.134;2022-11-02T03:33:27;100814.59;;;11.87;87.92
70781;BME280;59514;48.810;2.134;2022-11-02T03:36:08;100821.63;;;11.88;87.93
70781;BME280;59514;48.810;2.134;2022-11-02T03:38:44;100824.91;;;11.90;86.96
70781;BME280;59514;48.810;2.134;2022-11-02T03:41:12;100833.44;;;11.87;87.56
70781;BME280;59514;48.810;2.134;2022-11-02T03:43:40;100833.13;;;11.77;87.65
70781;BME280;59514;48.810;2.134;2022-11-02T03:46:07;100840.59;;;11.75;87.45
70781;BME280;59514;48.810;2.134;2022-11-02T03:48:39;100844.31;;;11.74;87.42
70781;BME280;59514;48.810;2.134;2022-11-02T03:51:10;100849.69;;;11.74;87.39
70781;BME280;59514;48.810;2.134;2022-11-02T03:53:46;100852.97;;;11.76;87.66
70781;BME280;59514;48.810;2.134;2022-11-02T03:56:21;100867.69;;;11.73;87.61
70781;BME280;59514;48.810;2.134;2022-11-02T03:58:50;100870.38;;;11.73;87.58
70781;BME280;59514;48.810;2.134;2022-11-02T04:01:16;100875.38;;;11.70;87.91
70781;BME280;59514;48.810;2.134;2022-11-02T04:03:44;100870.09;;;11.57;88.47
70781;BME280;59514;48.810;2.134;2022-11-02T04:06:10;100879.16;;;11.62;88.06
70781;BME280;59514;48.810;2.134;2022-11-02T04:08:40;100884.28;;;11.64;88.16
70781;BME280;59514;48.810;2.134;2022-11-02T04:11:06;100875.84;;;11.60;87.46
70781;BME280;59514;48.810;2.134;2022-11-02T04:13:50;100884.16;;;11.59;87.26
70781;BME280;59514;48.810;2.134;2022-11-02T04:16:35;100885.88;;;11.47;87.59
70781;BME280;59514;48.810;2.134;2022-11-02T04:19:00;100885.28;;;11.45;87.80
70781;BME280;59514;48.810;2.134;2022-11-02T04:21:44;100883.53;;;11.57;87.40
70781;BME280;59514;48.810;2.134;2022-11-02T04:24:30;100890.13;;;11.61;86.90
70781;BME280;59514;48.810;2.134;2022-11-02T04:27:14;100893.91;;;11.53;87.01
70781;BME280;59514;48.810;2.134;2022-11-02T04:29:40;100894.09;;;11.52;87.62
70781;BME280;59514;48.810;2.134;2022-11-02T04:32:05;100895.78;;;11.53;87.38
70781;BME280;59514;48.810;2.134;2022-11-02T04:34:31;100899.50;;;11.52;87.48
70781;BME280;59514;48.810;2.134;2022-11-02T04:36:56;100902.38;;;11.57;87.09
70781;BME280;59514;48.810;2.134;2022-11-02T04:39:21;100903.47;;;11.49;87.57
70781;BME280;59514;48.810;2.134;2022-11-02T04:41:46;100899.94;;;11.49;87.51
70781;BME280;59514;48.810;2.134;2022-11-02T04:44:13;100911.69;;;11.54;87.22
70781;BME280;59514;48.810;2.134;2022-11-02T04:46:40;100908.63;;;11.51;87.08
70781;BME280;59514;48.810;2.134;2022-11-02T04:49:06;100912.31;;;11.50;87.14
70781;BME280;59514;48.810;2.134;2022-11-02T04:51:32;100914.38;;;11.54;86.75
70781;BME280;59514;48.810;2.134;2022-11-02T04:53:58;100921.84;;;11.52;86.90
70781;BME280;59514;48.810;2.134;2022-11-02T04:56:24;100923.09;;;11.50;87.06
70781;BME280;59514;48.810;2.134;2022-11-02T04:58:52;100934.25;;;11.53;86.48
70781;BME280;59514;48.810;2.134;2022-11-02T05:01:18;100939.88;;;11.45;86.91
70781;BME280;59514;48.810;2.134;2022-11-02T05:03:46;100940.69;;;11.46;86.37
70781;BME280;59514;48.810;2.134;2022-11-02T05:06:13;100941.13;;;11.43;86.81
70781;BME280;59514;48.810;2.134;2022-11-02T05:08:38;100940.91;;;11.44;86.64
70781;BME280;59514;48.810;2.134;2022-11-02T05:11:04;100946.78;;;11.35;87.49
70781;BME280;59514;48.810;2.134;2022-11-02T05:13:29;100946.94;;;11.40;87.24
70781;BME280;59514;48.810;2.134;2022-11-02T05:15:56;100955.44;;;11.37;87.00
70781;BME280;59514;48.810;2.134;2022-11-02T05:18:22;100945.09;;;11.34;87.89
70781;BME280;59514;48.810;2.134;2022-11-02T05:20:52;100946.78;;;11.35;87.21
70781;BME280;59514;48.810;2.134;2022-11-02T05:23:18;100948.81;;;11.39;87.35
70781;BME280;59514;48.810;2.134;2022-11-02T05:25:54;100952.97;;;11.35;87.27
70781;BME280;59514;48.810;2.134;2022-11-02T05:28:20;100953.41;;;11.25;88.46
70781;BME280;59514;48.810;2.134;2022-11-02T05:30:46;100948.25;;;11.31;87.72
70781;BME280;59514;48.810;2.134;2022-11-02T05:33:11;100959.59;;;11.33;87.50
70781;BME280;59514;48.810;2.134;2022-11-02T05:35:36;100955.69;;;11.28;88.25
70781;BME280;59514;48.810;2.134;2022-11-02T05:38:02;100963.16;;;11.26;88.38
70781;BME280;59514;48.810;2.134;2022-11-02T05:40:27;100972.84;;;11.27;88.89
70781;BME280;59514;48.810;2.134;2022-11-02T05:42:58;100973.66;;;11.35;87.95
70781;BME280;59514;48.810;2.134;2022-11-02T05:45:24;100975.13;;;11.31;88.56
70781;BME280;59514;48.810;2.134;2022-11-02T05:47:49;100969.78;;;11.17;88.84
70781;BME280;59514;48.810;2.134;2022-11-02T05:50:14;100971.63;;;11.23;88.43
70781;BME280;59514;48.810;2.134;2022-11-02T05:52:40;100979.69;;;11.23;88.52
70781;BME280;59514;48.810;2.134;2022-11-02T05:55:05;100977.00;;;11.23;89.39
70781;BME280;59514;48.810;2.134;2022-11-02T05:57:31;100979.53;;;11.18;89.01
70781;BME280;59514;48.810;2.134;2022-11-02T05:59:56;100976.38;;;11.21;89.55
70781;BME280;59514;48.810;2.134;2022-11-02T06:02:21;100964.63;;;11.22;89.34
70781;BME280;59514;48.810;2.134;2022-11-02T06:04:47;100968.78;;;11.18;89.14
70781;BME280;59514;48.810;2.134;2022-11-02T06:07:12;100971.28;;;11.13;89.23
70781;BME280;59514;48.810;2.134;2022-11-02T06:09:37;100963.47;;;11.05;90.07
70781;BME280;59514;48.810;2.134;2022-11-02T06:12:03;100974.81;;;11.07;89.26
70781;BME280;59514;48.810;2.134;2022-11-02T06:14:28;100973.16;;;11.13;89.57
70781;BME280;59514;48.810;2.134;2022-11-02T06:16:53;100971.06;;;11.15;89.61
70781;BME280;59514;48.810;2.134;2022-11-02T06:19:19;100981.59;;;11.16;89.43
70781;BME280;59514;48.810;2.134;2022-11-02T06:21:44;100979.75;;;11.10;89.86
70781;BME280;59514;48.810;2.134;2022-11-02T06:24:09;100984.91;;;11.12;89.26
70781;BME280;59514;48.810;2.134;2022-11-02T06:26:35;100987.81;;;11.10;89.91
70781;BME280;59514;48.810;2.134;2022-11-02T06:29:00;100982.44;;;11.10;89.26
70781;BME280;59514;48.810;2.134;2022-11-02T06:31:25;100995.28;;;11.08;89.10
70781;BME280;59514;48.810;2.134;2022-11-02T06:33:51;100997.34;;;11.06;90.03
70781;BME280;59514;48.810;2.134;2022-11-02T06:36:16;101010.56;;;11.08;89.64
70781;BME280;59514;48.810;2.134;2022-11-02T06:38:41;101011.84;;;11.05;89.69
70781;BME280;59514;48.810;2.134;2022-11-02T06:41:07;101013.53;;;10.93;90.20
70781;BME280;59514;48.810;2.134;2022-11-02T06:43:33;101016.00;;;10.95;90.06
70781;BME280;59514;48.810;2.134;2022-11-02T06:45:58;101020.16;;;10.84;90.20
70781;BME280;59514;48.810;2.134;2022-11-02T06:48:25;101024.69;;;10.90;90.08
70781;BME280;59514;48.810;2.134;2022-11-02T06:50:51;101031.50;;;10.80;90.81
70781;BME280;59514;48.810;2.134;2022-11-02T06:53:17;101037.13;;;10.65;91.61
70781;BME280;59514;48.810;2.134;2022-11-02T06:55:42;101031.75;;;10.72;90.71
70781;BME280;59514;48.810;2.134;2022-11-02T06:58:08;101032.56;;;10.79;90.81
70781;BME280;59514;48.810;2.134;2022-11-02T07:00:33;101031.72;;;10.78;90.37
70781;BME280;59514;48.810;2.134;2022-11-02T07:03:03;101033.63;;;10.71;90.85
70781;BME280;59514;48.810;2.134;2022-11-02T07:05:30;101028.88;;;10.73;91.21
70781;BME280;59514;48.810;2.134;2022-11-02T07:07:56;101030.50;;;10.74;90.14
70781;BME280;59514;48.810;2.134;2022-11-02T07:10:22;101036.69;;;10.75;90.99
70781;BME280;59514;48.810;2.134;2022-11-02T07:12:50;101042.25;;;10.86;90.19
70781;BME280;59514;48.810;2.134;2022-11-02T07:15:16;101043.69;;;10.89;89.39
70781;BME280;59514;48.810;2.134;2022-11-02T07:17:41;101048.84;;;10.90;89.78
70781;BME280;59514;48.810;2.134;2022-11-02T07:20:07;101042.88;;;10.88;89.89
70781;BME280;59514;48.810;2.134;2022-11-02T07:22:35;101041.63;;;10.97;90.08
70781;BME280;59514;48.810;2.134;2022-11-02T07:25:00;101038.31;;;10.95;89.28
70781;BME280;59514;48.810;2.134;2022-11-02T07:27:25;101040.41;;;10.93;89.61
70781;BME280;59514;48.810;2.134;2022-11-02T07:29:51;101040.56;;;10.92;89.45
70781;BME280;59514;48.810;2.134;2022-11-02T07:32:16;101044.31;;;10.91;90.60
70781;BME280;59514;48.810;2.134;2022-11-02T07:34:41;101043.69;;;10.95;90.39
70781;BME280;59514;48.810;2.134;2022-11-02T07:37:06;101047.81;;;10.98;89.78
70781;BME280;59514;48.810;2.134;2022-11-02T07:39:32;101041.81;;;11.02;89.32
70781;BME280;59514;48.810;2.134;2022-11-02T07:41:57;101044.25;;;11.10;89.26
70781;BME280;59514;48.810;2.134;2022-11-02T07:44:22;101041.78;;;11.09;90.13
70781;BME280;59514;48.810;2.134;2022-11-02T07:46:48;101046.09;;;11.10;89.65
70781;BME280;59514;48.810;2.134;2022-11-02T07:49:13;101052.31;;;11.10;90.47
70781;BME280;59514;48.810;2.134;2022-11-02T07:51:38;101054.16;;;11.10;90.64
70781;BME280;59514;48.810;2.134;2022-11-02T07:54:04;101048.38;;;11.13;90.40
70781;BME280;59514;48.810;2.134;2022-11-02T07:56:29;101050.69;;;11.09;90.60
70781;BME280;59514;48.810;2.134;2022-11-02T07:58:54;101050.25;;;11.12;91.07
70781;BME280;59514;48.810;2.134;2022-11-02T08:01:20;101054.78;;;11.12;91.35
70781;BME280;59514;48.810;2.134;2022-11-02T08:03:45;101057.28;;;11.07;91.02
70781;BME280;59514;48.810;2.134;2022-11-02T08:06:11;101058.31;;;11.12;90.92
70781;BME280;59514;48.810;2.134;2022-11-02T08:08:37;101049.00;;;11.08;91.10
70781;BME280;59514;48.810;2.134;2022-11-02T08:11:05;101054.78;;;11.12;91.23
70781;BME280;59514;48.810;2.134;2022-11-02T08:13:31;101055.84;;;11.11;91.38
70781;BME280;59514;48.810;2.134;2022-11-02T08:15:57;101048.16;;;11.14;91.27
70781;BME280;59514;48.810;2.134;2022-11-02T08:18:24;101053.38;;;11.09;90.52
70781;BME280;59514;48.810;2.134;2022-11-02T08:20:50;101055.84;;;11.04;91.49
70781;BME280;59514;48.810;2.134;2022-11-02T08:23:17;101061.84;;;11.06;91.64
70781;BME280;59514;48.810;2.134;2022-11-02T08:25:44;101061.22;;;11.04;91.49
70781;BME280;59514;48.810;2.134;2022-11-02T08:28:13;101064.13;;;11.03;91.84
70781;BME280;59514;48.810;2.134;2022-11-02T08:30:38;101062.66;;;11.07;91.33
70781;BME280;59514;48.810;2.134;2022-11-02T08:33:09;101072.19;;;11.09;91.03
70781;BME280;59514;48.810;2.134;2022-11-02T08:35:37;101071.13;;;11.10;91.34
70781;BME280;59514;48.810;2.134;2022-11-02T08:38:04;101069.66;;;11.14;90.50
70781;BME280;59514;48.810;2.134;2022-11-02T08:40:30;101068.81;;;11.20;90.37
70781;BME280;59514;48.810;2.134;2022-11-02T08:43:01;101065.53;;;11.18;90.27
70781;BME280;59514;48.810;2.134;2022-11-02T08:45:28;101062.22;;;11.16;90.67
70781;BME280;59514;48.810;2.134;2022-11-02T08:47:53;101066.97;;;11.21;90.30
70781;BME280;59514;48.810;2.134;2022-11-02T08:50:19;101071.28;;;11.22;90.61
70781;BME280;59514;48.810;2.134;2022-11-02T08:52:44;101072.53;;;11.19;90.86
70781;BME280;59514;48.810;2.134;2022-11-02T08:55:10;101074.59;;;11.17;90.79
70781;BME280;59514;48.810;2.134;2022-11-02T09:00:10;101072.13;;;11.16;91.12
70781;BME280;59514;48.810;2.134;2022-11-02T09:02:36;101077.91;;;11.19;91.24
70781;BME280;59514;48.810;2.134;2022-11-02T09:05:01;101073.41;;;11.13;92.28
70781;BME280;59514;48.810;2.134;2022-11-02T09:07:27;101075.03;;;11.14;91.41
70781;BME280;59514;48.810;2.134;2022-11-02T09:09:52;101081.25;;;11.15;91.94
70781;BME280;59514;48.810;2.134;2022-11-02T09:12:17;101083.72;;;11.16;92.22
70781;BME280;59514;48.810;2.134;2022-11-02T09:14:43;101072.97;;;11.16;91.84
70781;BME280;59514;48.810;2.134;2022-11-02T09:17:08;101079.59;;;11.20;92.02
70781;BME280;59514;48.810;2.134;2022-11-02T09:19:33;101071.69;;;11.25;92.02
70781;BME280;59514;48.810;2.134;2022-11-02T09:21:58;101067.59;;;11.23;91.18
70781;BME280;59514;48.810;2.134;2022-11-02T09:24:24;101062.59;;;11.26;91.72
70781;BME280;59514;48.810;2.134;2022-11-02T09:26:51;101063.81;;;11.37;91.42
70781;BME280;59514;48.810;2.134;2022-11-02T09:29:17;101067.50;;;11.43;91.76
70781;BME280;59514;48.810;2.134;2022-11-02T09:31:42;101058.59;;;11.49;91.22
70781;BME280;59514;48.810;2.134;2022-11-02T09:34:07;101063.28;;;11.60;90.59
70781;BME280;59514;48.810;2.134;2022-11-02T09:36:33;101059.56;;;11.61;90.85
70781;BME280;59514;48.810;2.134;2022-11-02T09:38:58;101060.38;;;11.68;89.66
70781;BME280;59514;48.810;2.134;2022-11-02T09:41:40;101053.09;;;11.75;89.10
70781;BME280;59514;48.810;2.134;2022-11-02T09:44:13;101058.91;;;11.72;88.85
70781;BME280;59514;48.810;2.134;2022-11-02T09:46:44;101055.34;;;11.78;89.47
70781;BME280;59514;48.810;2.134;2022-11-02T09:49:22;101056.16;;;11.85;89.29
70781;BME280;59514;48.810;2.134;2022-11-02T09:51:50;101050.94;;;11.90;88.50
70781;BME280;59514;48.810;2.134;2022-11-02T09:56:48;101044.53;;;11.91;89.62
70781;BME280;59514;48.810;2.134;2022-11-02T09:59:23;101051.50;;;11.98;89.22
70781;BME280;59514;48.810;2.134;2022-11-02T10:02:17;101046.66;;;12.07;88.29
70781;BME280;59514;48.810;2.134;2022-11-02T10:08:09;101058.91;;;12.03;88.14
70781;BME280;59514;48.810;2.134;2022-11-02T10:10:40;101055.19;;;12.04;88.36
70781;BME280;59514;48.810;2.134;2022-11-02T10:18:15;101052.84;;;12.14;87.41
70781;BME280;59514;48.810;2.134;2022-11-02T10:20:46;101058.19;;;12.21;86.88
70781;BME280;59514;48.810;2.134;2022-11-02T10:23:31;101054.97;;;12.37;86.93
70781;BME280;59514;48.810;2.134;2022-11-02T10:26:00;101056.91;;;12.48;85.85
70781;BME280;59514;48.810;2.134;2022-11-02T10:28:30;101063.94;;;12.49;85.35
70781;BME280;59514;48.810;2.134;2022-11-02T10:30:57;101068.53;;;12.48;84.98
70781;BME280;59514;48.810;2.134;2022-11-02T10:33:28;101062.69;;;12.51;84.61
70781;BME280;59514;48.810;2.134;2022-11-02T10:52:13;101049.13;;;12.64;83.71
70781;BME280;59514;48.810;2.134;2022-11-02T10:54:39;101049.19;;;12.76;83.03
70781;BME280;59514;48.810;2.134;2022-11-02T10:57:13;101048.69;;;12.85;82.96
70781;BME280;59514;48.810;2.134;2022-11-02T10:59:38;101053.63;;;12.88;82.23
70781;BME280;59514;48.810;2.134;2022-11-02T11:02:12;101055.41;;;12.94;81.78
70781;BME280;59514;48.810;2.134;2022-11-02T11:04:39;101051.09;;;12.93;81.95
70781;BME280;59514;48.810;2.134;2022-11-02T11:07:12;101053.50;;;13.02;81.48
70781;BME280;59514;48.810;2.134;2022-11-02T11:09:52;101060.50;;;13.02;80.90
70781;BME280;59514;48.810;2.134;2022-11-02T11:12:28;101048.94;;;13.02;80.55
70781;BME280;59514;48.810;2.134;2022-11-02T11:14:56;101042.94;;;13.00;79.11
70781;BME280;59514;48.810;2.134;2022-11-02T11:17:27;101039.41;;;12.99;78.96
70781;BME280;59514;48.810;2.134;2022-11-02T11:19:56;101036.00;;;13.11;78.24
70781;BME280;59514;48.810;2.134;2022-11-02T11:22:28;101033.22;;;13.17;78.61
70781;BME280;59514;48.810;2.134;2022-11-02T11:27:54;101040.03;;;13.20;78.46
70781;BME280;59514;48.810;2.134;2022-11-02T11:32:54;101019.44;;;13.25;78.63
70781;BME280;59514;48.810;2.134;2022-11-02T11:35:20;101013.81;;;13.27;78.08
70781;BME280;59514;48.810;2.134;2022-11-02T11:37:52;101021.34;;;13.36;78.25
70781;BME280;59514;48.810;2.134;2022-11-02T11:40:20;101012.94;;;13.44;77.38
70781;BME280;59514;48.810;2.134;2022-11-02T11:42:51;101004.41;;;13.47;76.75
70781;BME280;59514;48.810;2.134;2022-11-02T11:47:58;100988.84;;;13.49;77.30
70781;BME280;59514;48.810;2.134;2022-11-02T11:50:26;100997.56;;;13.63;77.07
70781;BME280;59514;48.810;2.134;2022-11-02T11:55:46;100983.53;;;13.84;77.38
70781;BME280;59514;48.810;2.134;2022-11-02T11:58:24;100977.59;;;13.94;76.39
70781;BME280;59514;48.810;2.134;2022-11-02T12:04:10;100977.13;;;14.20;75.17
70781;BME280;59514;48.810;2.134;2022-11-02T12:06:47;100967.78;;;14.34;75.32
70781;BME280;59514;48.810;2.134;2022-11-02T12:12:15;100978.00;;;14.55;73.09
70781;BME280;59514;48.810;2.134;2022-11-02T12:15:10;100970.25;;;14.58;72.59
70781;BME280;59514;48.810;2.134;2022-11-02T12:20:34;100949.19;;;14.72;71.56
70781;BME280;59514;48.810;2.134;2022-11-02T12:23:24;100956.81;;;14.87;70.47
70781;BME280;59514;48.810;2.134;2022-11-02T12:28:39;100932.56;;;14.92;69.50
70781;BME280;59514;48.810;2.134;2022-11-02T12:34:31;100937.22;;;15.08;69.83
70781;BME280;59514;48.810;2.134;2022-11-02T12:37:13;100909.72;;;15.11;69.00
70781;BME280;59514;48.810;2.134;2022-11-02T12:42:27;100906.91;;;14.66;68.51
70781;BME280;59514;48.810;2.134;2022-11-02T12:45:25;100919.81;;;14.64;68.19
70781;BME280;59514;48.810;2.134;2022-11-02T12:48:00;100900.06;;;14.75;68.03
70781;BME280;59514;48.810;2.134;2022-11-02T12:55:56;100888.16;;;15.44;65.13
70781;BME280;59514;48.810;2.134;2022-11-02T12:58:26;100890.16;;;15.65;63.84
70781;BME280;59514;48.810;2.134;2022-11-02T13:01:19;100894.53;;;15.38;64.33
70781;BME280;59514;48.810;2.134;2022-11-02T13:06:30;100874.06;;;15.42;64.42
70781;BME280;59514;48.810;2.134;2022-11-02T13:09:09;100864.78;;;15.71;63.40
70781;BME280;59514;48.810;2.134;2022-11-02T13:11:40;100858.34;;;15.72;63.27
70781;BME280;59514;48.810;2.134;2022-11-02T13:14:12;100859.63;;;15.86;63.11
70781;BME280;59514;48.810;2.134;2022-11-02T13:16:53;100846.16;;;15.91;62.18
70781;BME280;59514;48.810;2.134;2022-11-02T13:19:25;100841.09;;;15.78;63.15
70781;BME280;59514;48.810;2.134;2022-11-02T13:21:54;100842.75;;;15.46;64.43
70781;BME280;59514;48.810;2.134;2022-11-02T13:24:22;100838.78;;;15.37;64.07
70781;BME280;59514;48.810;2.134;2022-11-02T13:26:51;100834.03;;;15.44;64.86
70781;BME280;59514;48.810;2.134;2022-11-02T13:29:45;100835.59;;;15.73;63.68
70781;BME280;59514;48.810;2.134;2022-11-02T13:34:46;100819.44;;;15.78;64.12
70781;BME280;59514;48.810;2.134;2022-11-02T13:39:52;100812.09;;;15.95;64.56
70781;BME280;59514;48.810;2.134;2022-11-02T13:45:11;100812.19;;;16.00;63.25
70781;BME280;59514;48.810;2.134;2022-11-02T13:50:23;100809.56;;;15.89;62.73
70781;BME280;59514;48.810;2.134;2022-11-02T13:52:55;100806.72;;;15.62;62.67
70781;BME280;59514;48.810;2.134;2022-11-02T13:55:24;100797.81;;;15.45;63.00
70781;BME280;59514;48.810;2.134;2022-11-02T13:57:54;100796.84;;;15.39;63.22
70781;BME280;59514;48.810;2.134;2022-11-02T14:02:52;100797.47;;;15.58;62.20
70781;BME280;59514;48.810;2.134;2022-11-02T14:05:31;100800.00;;;15.48;61.56
70781;BME280;59514;48.810;2.134;2022-11-02T14:08:04;100789.13;;;15.43;61.73
70781;BME280;59514;48.810;2.134;2022-11-02T14:10:37;100781.06;;;15.48;60.85
70781;BME280;59514;48.810;2.134;2022-11-02T14:13:02;100782.53;;;15.56;60.49
70781;BME280;59514;48.810;2.134;2022-11-02T14:18:25;100774.47;;;15.77;59.12
70781;BME280;59514;48.810;2.134;2022-11-02T14:20:52;100775.69;;;15.86;59.12
70781;BME280;59514;48.810;2.134;2022-11-02T14:23:34;100767.06;;;15.89;58.80
70781;BME280;59514;48.810;2.134;2022-11-02T14:26:00;100775.81;;;15.75;59.08
70781;BME280;59514;48.810;2.134;2022-11-02T14:28:33;100774.59;;;15.87;57.85
70781;BME280;59514;48.810;2.134;2022-11-02T14:33:53;100763.44;;;16.00;57.50
70781;BME280;59514;48.810;2.134;2022-11-02T14:36:43;100775.41;;;16.04;57.13
70781;BME280;59514;48.810;2.134;2022-11-02T14:42:05;100767.09;;;15.73;58.48
70781;BME280;59514;48.810;2.134;2022-11-02T14:47:19;100756.31;;;15.94;58.46
70781;BME280;59514;48.810;2.134;2022-11-02T14:49:53;100767.03;;;16.06;58.51